Yong'An, China
Current Conditions -  °F | °C
As of 12:00 AM on Saturday 25 Oct 2014 (Local Time) from ZSAM Reporting Station
Clear Clear  
Wind Chill: 70°   Ceiling: Unl
Heat Index: 70°   Visibility: 6mi
Dew Point: 63°   Wind: 2mph
Humidity: 78%   Direction: 20°NNE
Pressure: 30.06"   Gusts: NA
Location:  25.97°N, 117.35°E
Report Text: ZSAM 241600Z 02001MPS CAVOK 21/17 Q1018 NOSIG
Loading
Personal Weather Stations






























Interactive Weather Map
Tropical Storm Tracking
New forecast layout! Learn more

10-Day Weather Forecast

Advertisements
Track Severe Weather on mobile